createdAt,value
2023-04-26T00:00:10.094Z,2.95
2023-04-26T00:02:40.321Z,2.45
2023-04-26T00:05:10.071Z,2.55
2023-04-26T00:07:39.268Z,3.60
2023-04-26T00:10:08.604Z,2.80
2023-04-26T00:12:37.569Z,2.40
2023-04-26T00:15:06.642Z,3.08
2023-04-26T00:17:34.880Z,3.53
2023-04-26T00:20:07.183Z,2.45
2023-04-26T00:22:35.428Z,2.67
2023-04-26T00:25:03.560Z,2.90
2023-04-26T00:27:31.949Z,2.30
2023-04-26T00:30:00.109Z,2.33
2023-04-26T00:32:29.981Z,2.42
2023-04-26T00:34:58.161Z,2.88
2023-04-26T00:37:27.786Z,2.83
2023-04-26T00:39:57.408Z,2.47
2023-04-26T00:42:25.742Z,2.63
2023-04-26T00:44:57.522Z,2.45
2023-04-26T00:47:26.310Z,2.58
2023-04-26T00:49:54.680Z,2.67
2023-04-26T00:52:24.141Z,2.88
2023-04-26T00:54:56.591Z,2.28
2023-04-26T00:57:25.299Z,2.35
2023-04-26T00:59:53.513Z,2.30
2023-04-26T01:02:21.870Z,2.20
2023-04-26T01:04:50.653Z,2.47
2023-04-26T01:07:18.842Z,2.08
2023-04-26T01:09:48.543Z,2.70
2023-04-26T01:12:18.236Z,2.20
2023-04-26T01:14:47.214Z,2.17
2023-04-26T01:17:15.646Z,2.28
2023-04-26T01:19:49.187Z,2.92
2023-04-26T01:22:18.153Z,2.08
2023-04-26T01:24:51.512Z,2.30
2023-04-26T01:27:19.872Z,2.17
2023-04-26T01:29:48.088Z,2.33
2023-04-26T01:32:21.783Z,2.20
2023-04-26T01:34:49.939Z,3.17
2023-04-26T01:37:18.021Z,2.10
2023-04-26T01:39:50.593Z,2.42
2023-04-26T01:42:18.833Z,2.92
2023-04-26T01:44:47.061Z,1.85
2023-04-26T01:47:15.281Z,2.22
2023-04-26T01:49:43.365Z,1.90
2023-04-26T01:52:11.703Z,2.40
2023-04-26T01:54:39.871Z,2.15
2023-04-26T01:57:09.644Z,2.72
2023-04-26T01:59:37.817Z,2.10
2023-04-26T02:02:06.116Z,3.53
2023-04-26T02:04:34.321Z,2.50
2023-04-26T02:07:02.507Z,2.30
2023-04-26T02:09:30.727Z,2.20
2023-04-26T02:11:58.780Z,2.75
2023-04-26T02:14:28.344Z,2.17
2023-04-26T02:16:57.532Z,2.60
2023-04-26T02:19:25.972Z,2.80
2023-04-26T02:21:57.338Z,2.35
2023-04-26T02:24:25.962Z,2.20
2023-04-26T02:26:55.212Z,2.30
2023-04-26T02:29:39.998Z,2.28
2023-04-26T02:32:12.394Z,2.22
2023-04-26T02:34:40.862Z,2.47
2023-04-26T02:37:09.165Z,2.47
2023-04-26T02:39:37.665Z,2.30
2023-04-26T02:42:10.135Z,2.65
2023-04-26T02:44:39.878Z,2.33
2023-04-26T02:47:08.414Z,2.45
2023-04-26T02:49:38.336Z,2.20
2023-04-26T02:52:06.663Z,3.45
2023-04-26T02:54:34.948Z,2.67
2023-04-26T02:57:03.250Z,2.20
2023-04-26T02:59:31.640Z,2.40
2023-04-26T03:01:59.839Z,2.13
2023-04-26T03:04:28.963Z,2.08
2023-04-26T03:06:58.666Z,2.92
2023-04-26T03:09:26.759Z,1.73
2023-04-26T03:11:54.961Z,2.20
2023-04-26T03:14:23.234Z,2.50
2023-04-26T03:16:51.427Z,2.28
2023-04-26T03:19:19.975Z,2.17
2023-04-26T03:21:48.059Z,2.03
2023-04-26T03:24:17.729Z,2.28
2023-04-26T03:26:46.187Z,2.03
2023-04-26T03:29:14.446Z,2.08
2023-04-26T03:31:42.670Z,2.17
2023-04-26T03:34:11.683Z,2.20
2023-04-26T03:36:39.933Z,2.25
2023-04-26T03:39:08.107Z,3.88
2023-04-26T03:41:39.715Z,2.50
2023-04-26T03:44:08.171Z,2.38
2023-04-26T03:46:36.533Z,2.22
2023-04-26T03:49:04.874Z,2.35
2023-04-26T03:51:33.011Z,2.40
2023-04-26T03:54:01.241Z,2.95
2023-04-26T03:56:29.358Z,3.00
2023-04-26T03:58:59.047Z,2.83
2023-04-26T04:01:27.208Z,2.45
2023-04-26T04:03:55.581Z,2.53
2023-04-26T04:06:24.119Z,2.85
2023-04-26T04:08:52.588Z,2.35
2023-04-26T04:11:20.963Z,2.65
2023-04-26T04:13:49.287Z,2.55
2023-04-26T04:16:19.350Z,2.40
2023-04-26T04:18:47.641Z,2.50
2023-04-26T04:21:15.828Z,2.22
2023-04-26T04:23:44.720Z,2.60
2023-04-26T04:26:13.034Z,3.08
2023-04-26T04:28:42.589Z,2.25
2023-04-26T04:31:10.879Z,3.40
2023-04-26T04:33:40.532Z,2.40
2023-04-26T04:36:09.761Z,2.50
2023-04-26T04:38:37.972Z,3.22
2023-04-26T04:41:06.281Z,2.47
2023-04-26T04:43:34.592Z,3.53
2023-04-26T04:46:02.950Z,2.83
2023-04-26T04:48:31.232Z,2.97
2023-04-26T04:51:00.923Z,2.38
2023-04-26T04:53:29.094Z,2.40
2023-04-26T04:55:57.481Z,2.20
2023-04-26T04:58:25.665Z,2.25
2023-04-26T05:00:54.372Z,2.72
2023-04-26T05:03:23.101Z,2.20
2023-04-26T05:05:51.816Z,3.08
2023-04-26T05:08:21.285Z,3.28
2023-04-26T05:10:49.604Z,2.80
2023-04-26T05:13:17.758Z,2.72
2023-04-26T05:15:45.912Z,2.80
2023-04-26T05:18:14.179Z,2.63
2023-04-26T05:20:42.571Z,2.78
2023-04-26T05:23:11.050Z,2.80
2023-04-26T05:25:41.879Z,4.82
2023-04-26T05:28:14.098Z,3.55
2023-04-26T05:30:42.305Z,3.25
2023-04-26T05:33:11.150Z,3.35
2023-04-26T05:35:39.430Z,3.55
2023-04-26T05:38:07.741Z,2.88
2023-04-26T05:40:36.093Z,2.25
2023-04-26T05:43:05.996Z,2.30
2023-04-26T05:45:34.368Z,2.25
2023-04-26T05:48:02.659Z,2.70
2023-04-26T05:50:31.365Z,2.30
2023-04-26T05:52:59.576Z,2.85
2023-04-26T05:55:27.850Z,2.40
2023-04-26T05:57:56.381Z,2.30
2023-04-26T06:00:26.807Z,1.98
2023-04-26T06:02:55.193Z,1.85
2023-04-26T06:05:23.882Z,2.63
2023-04-26T06:07:53.181Z,2.90
2023-04-26T06:10:21.608Z,3.63
2023-04-26T06:12:50.206Z,3.22
2023-04-26T06:15:18.511Z,2.72
2023-04-26T06:17:48.407Z,2.63
2023-04-26T06:20:21.863Z,2.85
2023-04-26T06:22:50.446Z,2.22
2023-04-26T06:25:19.225Z,2.25
2023-04-26T06:27:50.071Z,2.20
2023-04-26T06:30:18.394Z,2.63
2023-04-26T06:32:47.989Z,2.30
2023-04-26T06:35:16.664Z,2.42
2023-04-26T06:37:44.856Z,2.80
2023-04-26T06:40:15.987Z,3.58
2023-04-26T06:42:44.245Z,3.88
2023-04-26T06:45:13.269Z,2.88
2023-04-26T06:47:41.534Z,4.45
2023-04-26T06:50:12.417Z,5.43
2023-04-26T06:52:40.620Z,4.57
2023-04-26T06:55:10.204Z,6.75
2023-04-26T06:57:38.495Z,4.18
2023-04-26T07:00:09.773Z,2.90
2023-04-26T07:02:38.234Z,2.53
2023-04-26T07:05:07.526Z,3.53
2023-04-26T07:07:37.307Z,3.70
2023-04-26T07:10:06.149Z,2.63
2023-04-26T07:12:34.344Z,2.58
2023-04-26T07:15:02.660Z,2.80
2023-04-26T07:17:30.935Z,2.17
2023-04-26T07:19:59.322Z,2.20
2023-04-26T07:22:27.517Z,2.05
2023-04-26T07:24:57.083Z,2.10
2023-04-26T07:27:25.365Z,1.90
2023-04-26T07:29:56.313Z,2.38
2023-04-26T07:32:24.611Z,2.83
2023-04-26T07:34:52.996Z,2.40
2023-04-26T07:37:21.095Z,2.90
2023-04-26T07:39:49.290Z,2.60
2023-04-26T07:42:18.971Z,2.10
2023-04-26T07:44:49.304Z,2.25
2023-04-26T07:47:17.600Z,3.03
2023-04-26T07:49:47.643Z,2.28
2023-04-26T07:52:15.965Z,2.20
2023-04-26T07:54:46.929Z,2.90
2023-04-26T07:57:15.041Z,3.03
2023-04-26T07:59:44.782Z,2.70
2023-04-26T08:02:13.126Z,2.72
2023-04-26T08:04:48.794Z,3.67
2023-04-26T08:07:20.507Z,2.50
2023-04-26T08:09:49.236Z,2.58
2023-04-26T08:12:17.717Z,2.80
2023-04-26T08:14:47.790Z,2.97
2023-04-26T08:17:16.014Z,3.22
2023-04-26T08:19:44.188Z,3.17
2023-04-26T08:22:12.427Z,3.30
2023-04-26T08:24:40.604Z,2.53
2023-04-26T08:27:09.002Z,2.72
2023-04-26T08:29:37.101Z,2.90
2023-04-26T08:32:07.288Z,3.10
2023-04-26T08:34:35.471Z,4.43
2023-04-26T08:37:03.756Z,2.63
2023-04-26T08:39:32.441Z,3.25
2023-04-26T08:42:08.560Z,3.90
2023-04-26T08:44:37.905Z,3.17
2023-04-26T08:47:14.859Z,2.78
2023-04-26T08:49:45.117Z,2.97
2023-04-26T08:52:14.883Z,2.20
2023-04-26T08:54:43.130Z,2.20
2023-04-26T08:57:11.636Z,2.47
2023-04-26T08:59:41.125Z,3.10
2023-04-26T09:02:12.270Z,3.67
2023-04-26T09:04:41.588Z,2.45
2023-04-26T09:07:14.506Z,3.30
2023-04-26T09:09:44.005Z,2.55
2023-04-26T09:12:12.593Z,2.60
2023-04-26T09:14:41.594Z,2.97
2023-04-26T09:17:30.980Z,2.58
2023-04-26T09:19:59.649Z,2.85
2023-04-26T09:22:32.589Z,2.72
2023-04-26T09:25:01.853Z,2.72
2023-04-26T09:27:37.051Z,3.42
2023-04-26T09:30:09.436Z,2.90
2023-04-26T09:32:51.270Z,2.78
2023-04-26T09:35:31.654Z,3.60
2023-04-26T09:38:08.590Z,2.88
2023-04-26T09:40:41.700Z,3.00
2023-04-26T09:43:12.976Z,2.40
2023-04-26T09:45:50.330Z,2.88
2023-04-26T09:48:25.901Z,3.28
2023-04-26T09:50:55.336Z,2.10
2023-04-26T09:53:31.173Z,2.08
2023-04-26T09:56:08.543Z,2.70
2023-04-26T09:58:38.218Z,2.88
2023-04-26T10:01:08.245Z,2.63
2023-04-26T10:03:38.777Z,2.58
2023-04-26T10:06:11.389Z,2.08
2023-04-26T10:08:43.755Z,2.70
2023-04-26T10:11:12.903Z,2.85
2023-04-26T10:13:43.041Z,2.58
2023-04-26T10:16:11.976Z,3.28
2023-04-26T10:18:41.480Z,3.50
2023-04-26T10:21:14.028Z,3.47
2023-04-26T10:23:42.821Z,2.67
2023-04-26T10:26:47.257Z,2.45
2023-04-26T10:29:15.601Z,3.65
2023-04-26T10:32:08.919Z,2.90
2023-04-26T10:34:38.927Z,3.90
2023-04-26T10:37:14.850Z,3.13
2023-04-26T10:39:44.748Z,2.50
2023-04-26T10:42:26.997Z,2.72
2023-04-26T10:44:56.464Z,3.17
2023-04-26T10:47:32.789Z,2.50
2023-04-26T10:50:08.415Z,2.33
2023-04-26T10:52:37.290Z,2.45
2023-04-26T10:55:06.876Z,2.80
2023-04-26T10:57:54.492Z,2.75
2023-04-26T11:00:33.214Z,2.65
2023-04-26T11:03:06.742Z,3.63
2023-04-26T11:05:39.158Z,2.40
2023-04-26T11:08:09.611Z,2.28
2023-04-26T11:10:41.099Z,2.53
2023-04-26T11:13:09.665Z,3.90
2023-04-26T11:15:37.938Z,2.63
2023-04-26T11:18:06.593Z,4.28
2023-04-26T11:20:36.713Z,3.58
2023-04-26T11:23:05.130Z,3.33
2023-04-26T11:25:33.317Z,2.85
2023-04-26T11:28:02.434Z,2.60
2023-04-26T11:30:32.059Z,2.83
2023-04-26T11:33:01.553Z,2.53
2023-04-26T11:35:30.982Z,2.80
2023-04-26T11:38:01.629Z,2.03
2023-04-26T11:40:31.655Z,2.40
2023-04-26T11:43:03.716Z,2.55
2023-04-26T11:45:34.302Z,2.63
2023-04-26T11:48:04.681Z,2.95
2023-04-26T11:50:34.635Z,2.97
2023-04-26T11:53:08.108Z,2.15
2023-04-26T11:55:37.051Z,2.60
2023-04-26T11:58:13.934Z,2.28
2023-04-26T12:00:58.166Z,2.58
2023-04-26T12:03:31.112Z,2.45
2023-04-26T12:05:59.621Z,2.42
2023-04-26T12:08:29.202Z,3.22
2023-04-26T12:11:01.360Z,2.55
2023-04-26T12:13:30.272Z,2.50
2023-04-26T12:15:58.396Z,2.47
2023-04-26T12:18:32.495Z,2.72
2023-04-26T12:21:01.793Z,2.08
2023-04-26T12:23:39.527Z,2.20
2023-04-26T12:26:11.147Z,2.75
2023-04-26T12:28:39.868Z,1.83
2023-04-26T12:31:08.564Z,2.10
2023-04-26T12:33:37.516Z,2.10
2023-04-26T12:36:12.909Z,2.75
2023-04-26T12:38:42.936Z,2.20
2023-04-26T12:41:11.640Z,2.05
2023-04-26T12:43:42.857Z,2.63
2023-04-26T12:46:10.989Z,1.90
2023-04-26T12:48:39.208Z,2.28
2023-04-26T12:51:07.643Z,2.33
2023-04-26T12:53:37.312Z,2.25
2023-04-26T12:56:07.599Z,3.00
2023-04-26T12:58:35.814Z,2.25
2023-04-26T13:01:03.963Z,2.25
2023-04-26T13:03:32.349Z,2.80
2023-04-26T13:06:00.728Z,3.35
2023-04-26T13:08:29.882Z,3.53
2023-04-26T13:10:58.127Z,3.05
2023-04-26T13:13:39.770Z,2.40
2023-04-26T13:16:11.941Z,2.60
2023-04-26T13:18:40.988Z,2.75
2023-04-26T13:21:09.186Z,3.28
2023-04-26T13:23:37.383Z,4.50
2023-04-26T13:26:05.597Z,3.30
2023-04-26T13:28:37.425Z,2.92
2023-04-26T13:31:07.596Z,2.88
2023-04-26T13:33:35.749Z,3.60
2023-04-26T13:36:04.104Z,2.92
2023-04-26T13:38:33.055Z,4.75
2023-04-26T13:41:01.536Z,2.65
2023-04-26T13:43:29.732Z,3.28
2023-04-26T13:45:59.333Z,3.05
2023-04-26T13:48:27.560Z,4.15
2023-04-26T13:50:56.346Z,3.13
2023-04-26T13:53:24.552Z,3.40
2023-04-26T13:55:57.286Z,3.13
2023-04-26T13:58:25.363Z,5.07
2023-04-26T14:00:56.140Z,3.75
2023-04-26T14:03:26.933Z,3.40
2023-04-26T14:05:56.180Z,3.67
2023-04-26T14:08:24.249Z,3.67
2023-04-26T14:10:52.553Z,2.80
2023-04-26T14:13:20.721Z,2.90
2023-04-26T14:15:48.951Z,4.47
2023-04-26T14:18:18.124Z,3.33
2023-04-26T14:20:48.336Z,2.97
2023-04-26T14:23:17.029Z,2.83
2023-04-26T14:25:45.244Z,3.65
2023-04-26T14:28:16.615Z,3.38
2023-04-26T14:33:13.072Z,3.35
2023-04-26T14:35:41.456Z,2.63
2023-04-26T14:38:11.057Z,3.50
2023-04-26T14:40:39.277Z,2.78
2023-04-26T14:43:07.569Z,3.40
2023-04-26T14:45:44.109Z,2.70
2023-04-26T14:48:13.476Z,2.70
2023-04-26T14:50:41.957Z,2.90
2023-04-26T14:53:11.684Z,3.13
2023-04-26T14:55:39.858Z,2.53
2023-04-26T14:58:08.200Z,3.03
2023-04-26T15:00:36.554Z,3.00
2023-04-26T15:03:05.465Z,2.45
2023-04-26T15:05:33.978Z,2.58
2023-04-26T15:08:02.156Z,4.05
2023-04-26T15:10:31.705Z,2.75
2023-04-26T15:13:00.240Z,2.70
2023-04-26T15:19:19.237Z,3.38
2023-04-26T15:21:47.421Z,2.58
2023-04-26T15:24:15.525Z,2.45
2023-04-26T15:26:45.282Z,2.53
2023-04-26T15:29:14.730Z,2.53
2023-04-26T15:31:42.989Z,2.60
2023-04-26T15:34:11.154Z,2.72
2023-04-26T15:36:39.480Z,2.83
2023-04-26T15:39:09.160Z,2.60
2023-04-26T15:41:37.450Z,3.30
2023-04-26T15:44:07.010Z,2.45
2023-04-26T15:46:37.990Z,2.25
2023-04-26T15:49:06.400Z,2.22
2023-04-26T15:51:34.508Z,2.55
2023-04-26T15:54:02.742Z,2.75
2023-04-26T15:56:30.979Z,2.17
2023-04-26T15:59:01.219Z,2.45
2023-04-26T16:01:31.498Z,2.72
2023-04-26T16:03:59.809Z,3.20
2023-04-26T16:06:28.614Z,2.30
2023-04-26T16:08:57.030Z,2.15
2023-04-26T16:11:26.360Z,2.33
2023-04-26T16:13:54.640Z,2.55
2023-04-26T16:16:22.961Z,2.10
2023-04-26T16:18:52.713Z,2.40
2023-04-26T16:21:20.938Z,2.70
2023-04-26T16:23:49.794Z,2.50
2023-04-26T16:26:22.360Z,2.83
2023-04-26T16:28:51.105Z,2.08
2023-04-26T16:31:19.994Z,2.42
2023-04-26T16:33:48.174Z,2.70
2023-04-26T16:36:18.084Z,2.60
2023-04-26T16:38:46.219Z,2.15
2023-04-26T16:41:14.366Z,2.30
2023-04-26T16:43:42.519Z,2.45
2023-04-26T16:46:10.843Z,2.33
2023-04-26T16:48:40.617Z,2.70
2023-04-26T16:51:09.091Z,2.33
2023-04-26T16:53:38.897Z,2.67
2023-04-26T16:56:07.833Z,2.67
2023-04-26T16:58:36.060Z,2.40
2023-04-26T17:01:05.110Z,2.67
2023-04-26T17:03:33.443Z,2.45
2023-04-26T17:06:02.181Z,2.60
2023-04-26T17:08:30.547Z,2.55
2023-04-26T17:11:00.042Z,2.42
2023-04-26T17:13:29.525Z,2.95
2023-04-26T17:15:58.367Z,2.20
2023-04-26T17:18:26.822Z,2.00
2023-04-26T17:20:56.511Z,2.00
2023-04-26T17:23:24.803Z,1.98
2023-04-26T17:25:55.123Z,2.38
2023-04-26T17:28:25.092Z,2.37
2023-04-26T17:30:53.507Z,2.25
2023-04-26T17:33:21.686Z,2.08
2023-04-26T17:35:52.323Z,2.80
2023-04-26T17:38:20.665Z,2.58
2023-04-26T17:40:53.347Z,7.03
2023-04-26T17:43:21.773Z,7.30
2023-04-26T17:45:51.431Z,3.55
2023-04-26T17:48:19.722Z,2.70
2023-04-26T17:50:47.980Z,2.25
2023-04-26T17:53:16.406Z,2.20
2023-04-26T17:55:45.182Z,2.15
2023-04-26T17:58:13.466Z,2.28
2023-04-26T18:00:41.510Z,2.28
2023-04-26T18:03:12.301Z,1.95
2023-04-26T18:05:40.787Z,2.25
2023-04-26T18:08:09.023Z,2.40
2023-04-26T18:10:37.305Z,1.88
2023-04-26T18:13:05.764Z,2.47
2023-04-26T18:15:33.895Z,2.40
2023-04-26T18:18:05.641Z,2.55
2023-04-26T18:20:36.491Z,3.15
2023-04-26T18:23:04.660Z,2.87
2023-04-26T18:25:33.039Z,2.42
2023-04-26T18:28:01.290Z,3.47
2023-04-26T18:30:29.450Z,3.03
2023-04-26T18:32:57.656Z,2.58
2023-04-26T18:35:25.933Z,2.72
2023-04-26T18:37:55.674Z,2.08
2023-04-26T18:40:24.054Z,2.40
2023-04-26T18:42:52.144Z,3.50
2023-04-26T18:45:20.296Z,2.55
2023-04-26T18:47:48.661Z,3.28
2023-04-26T18:50:17.042Z,2.28
2023-04-26T18:52:45.178Z,1.80
2023-04-26T18:55:14.977Z,2.30
2023-04-26T18:57:43.191Z,3.20
2023-04-26T19:00:12.160Z,3.08
2023-04-26T19:02:41.364Z,3.15
2023-04-26T19:05:11.693Z,2.88
2023-04-26T19:07:41.890Z,2.95
2023-04-26T19:10:10.989Z,4.13
2023-04-26T19:12:40.754Z,3.65
2023-04-26T19:15:09.781Z,3.63
2023-04-26T19:17:38.107Z,4.07
2023-04-26T19:20:12.491Z,2.92
2023-04-26T19:22:41.977Z,4.45
2023-04-26T19:25:10.954Z,3.08
2023-04-26T19:27:40.799Z,3.30
2023-04-26T19:30:10.067Z,3.53
2023-04-26T19:32:38.676Z,3.50
2023-04-26T19:35:12.614Z,3.50
2023-04-26T19:37:41.081Z,3.58
2023-04-26T19:40:10.520Z,3.38
2023-04-26T19:42:40.098Z,3.88
2023-04-26T19:45:09.295Z,4.32
2023-04-26T19:47:37.531Z,3.90
2023-04-26T19:50:06.479Z,4.25
2023-04-26T19:52:34.719Z,3.72
2023-04-26T19:55:03.576Z,3.80
2023-04-26T19:57:31.826Z,4.40
2023-04-26T20:00:01.433Z,4.85
2023-04-26T20:02:29.793Z,4.35
2023-04-26T20:04:58.269Z,4.43
2023-04-26T20:07:26.877Z,3.28
2023-04-26T20:09:55.080Z,4.70
2023-04-26T20:12:23.505Z,3.80
2023-04-26T20:14:51.755Z,4.43
2023-04-26T20:17:21.799Z,3.88
2023-04-26T20:19:49.963Z,3.58
2023-04-26T20:22:18.219Z,4.30
2023-04-26T20:24:46.459Z,3.35
2023-04-26T20:27:14.641Z,3.35
2023-04-26T20:29:42.772Z,3.75
2023-04-26T20:32:11.009Z,3.20
2023-04-26T20:34:40.620Z,3.22
2023-04-26T20:37:08.851Z,2.45
2023-04-26T20:39:37.306Z,2.97
2023-04-26T20:42:05.929Z,3.13
2023-04-26T20:44:33.964Z,3.17
2023-04-26T20:47:02.269Z,3.10
2023-04-26T20:49:30.583Z,3.10
2023-04-26T20:52:00.153Z,3.38
2023-04-26T20:54:28.433Z,3.55
2023-04-26T20:56:56.793Z,3.33
2023-04-26T20:59:25.698Z,2.78
2023-04-26T21:01:54.443Z,2.75
2023-04-26T21:04:23.036Z,2.95
2023-04-26T21:06:51.379Z,2.72
2023-04-26T21:09:21.659Z,3.17
2023-04-26T21:11:49.925Z,3.17
2023-04-26T21:14:18.005Z,2.72
2023-04-26T21:16:46.216Z,3.63
2023-04-26T21:19:14.398Z,2.65
2023-04-26T21:21:42.574Z,3.35
2023-04-26T21:24:10.712Z,3.25
2023-04-26T21:26:40.365Z,3.03
2023-04-26T21:29:09.589Z,3.35
2023-04-26T21:31:37.877Z,3.33
2023-04-26T21:34:06.114Z,3.13
2023-04-26T21:36:34.232Z,3.53
2023-04-26T21:39:03.621Z,3.30
2023-04-26T21:41:31.960Z,3.13
2023-04-26T21:44:02.202Z,3.90
2023-04-26T21:46:30.858Z,3.20
2023-04-26T21:48:59.545Z,2.88
2023-04-26T21:51:27.926Z,3.35
2023-04-26T21:53:56.304Z,4.20
2023-04-26T21:56:25.155Z,4.00
2023-04-26T21:58:53.472Z,3.95
2023-04-26T22:01:22.975Z,4.10
2023-04-26T22:03:51.558Z,4.47
2023-04-26T22:06:19.947Z,4.47
2023-04-26T22:08:48.000Z,4.70
2023-04-26T22:11:16.261Z,4.05
2023-04-26T22:13:44.438Z,4.07
2023-04-26T22:16:15.324Z,4.22
2023-04-26T22:18:45.002Z,3.47
2023-04-26T22:21:13.185Z,4.53
2023-04-26T22:23:41.472Z,4.60
2023-04-26T22:26:09.697Z,3.92
2023-04-26T22:28:38.023Z,3.78
2023-04-26T22:31:06.498Z,4.68
2023-04-26T22:33:34.786Z,4.22
2023-04-26T22:36:04.590Z,4.70
2023-04-26T22:38:38.813Z,4.60
2023-04-26T22:41:07.549Z,4.03
2023-04-26T22:43:35.966Z,4.40
2023-04-26T22:46:04.379Z,4.13
2023-04-26T22:48:35.151Z,3.95
2023-04-26T22:51:04.911Z,3.92
2023-04-26T22:53:33.098Z,5.05
2023-04-26T22:56:01.238Z,4.20
2023-04-26T22:58:29.475Z,4.15
2023-04-26T23:00:57.667Z,4.13
2023-04-26T23:03:26.096Z,3.78
2023-04-26T23:05:54.402Z,4.20
2023-04-26T23:08:24.097Z,3.47
2023-04-26T23:10:52.354Z,4.13
2023-04-26T23:13:20.454Z,4.95
2023-04-26T23:15:48.649Z,4.22
2023-04-26T23:18:16.964Z,4.20
2023-04-26T23:20:45.763Z,4.68
2023-04-26T23:23:14.054Z,3.95
2023-04-26T23:25:43.639Z,4.05
2023-04-26T23:28:13.756Z,4.97
2023-04-26T23:30:44.166Z,4.75
2023-04-26T23:33:12.478Z,4.40
2023-04-26T23:35:42.465Z,4.95
2023-04-26T23:38:10.829Z,4.00
2023-04-26T23:40:38.990Z,4.13
2023-04-26T23:43:08.745Z,4.28
2023-04-26T23:45:36.985Z,4.95
2023-04-26T23:48:05.799Z,4.03
2023-04-26T23:50:34.091Z,4.20
2023-04-26T23:53:02.177Z,4.07
2023-04-26T23:55:30.358Z,4.00
2023-04-26T23:57:58.707Z,4.50
